Time;durP1;ratioP1;P1;durP2;ratioP2;P2;SDS_P1;SDS_P2;PMS_P1;PMS_P2;Temp;Humidity;BMP_temperature;BMP_pressure;BME280_temperature;BME280_humidity;BME280_pressure;Samples;Min_cycle;Max_cycle;Signal;HPM_P1;HPM_P2
2022/09/26 00:00:40;;;;;;;8.30;7.00;;;;;;;;;;4343455;33;20324;-52
2022/09/26 00:03:09;;;;;;;9.32;7.07;;;;;;;;;;4343247;33;20353;-52
2022/09/26 00:05:37;;;;;;;9.90;6.87;;;;;;;;;;4341670;33;20364;-52
2022/09/26 00:08:05;;;;;;;10.07;7.12;;;;;;;;;;4342368;33;20277;-52
2022/09/26 00:10:32;;;;;;;9.20;6.68;;;;;;;;;;4342851;33;20615;-52
2022/09/26 00:12:59;;;;;;;10.35;7.28;;;;;;;;;;4342593;33;20271;-52
2022/09/26 00:15:27;;;;;;;10.48;6.68;;;;;;;;;;4343150;33;20219;-52
2022/09/26 00:17:53;;;;;;;9.25;7.22;;;;;;;;;;4342978;33;20256;-52
2022/09/26 00:20:22;;;;;;;10.50;6.87;;;;;;;;;;4342745;33;20586;-52
2022/09/26 00:22:48;;;;;;;9.35;6.35;;;;;;;;;;4342801;33;20235;-52
2022/09/26 00:25:15;;;;;;;19.10;7.10;;;;;;;;;;4342943;33;20239;-52
2022/09/26 00:27:42;;;;;;;9.45;7.43;;;;;;;;;;4343184;33;20877;-52
2022/09/26 00:30:11;;;;;;;15.43;7.28;;;;;;;;;;4342770;33;20350;-52
2022/09/26 00:32:37;;;;;;;11.57;6.15;;;;;;;;;;4343062;33;20454;-51
2022/09/26 00:35:05;;;;;;;9.80;7.30;;;;;;;;;;4342750;33;20278;-52
2022/09/26 00:37:33;;;;;;;14.20;7.20;;;;;;;;;;4342673;33;20231;-52
2022/09/26 00:40:00;;;;;;;9.93;6.62;;;;;;;;;;4343146;33;20339;-52
2022/09/26 00:42:27;;;;;;;11.18;6.50;;;;;;;;;;4342743;33;20396;-52
2022/09/26 00:44:55;;;;;;;7.40;6.47;;;;;;;;;;4342548;33;20228;-52
2022/09/26 00:47:41;;;;;;;8.70;6.15;;;;;;;;;;4342647;33;20296;-51
2022/09/26 00:50:13;;;;;;;8.65;6.85;;;;;;;;;;4354605;33;20308;-52
2022/09/26 00:52:45;;;;;;;10.00;6.40;;;;;;;;;;4357547;32;20334;-52
2022/09/26 00:55:14;;;;;;;9.52;5.93;;;;;;;;;;4350992;33;20219;-52
2022/09/26 00:57:47;;;;;;;9.70;6.72;;;;;;;;;;4342943;33;20246;-52
2022/09/26 01:00:15;;;;;;;10.10;6.20;;;;;;;;;;4342992;33;20234;-51
2022/09/26 01:02:43;;;;;;;12.27;6.53;;;;;;;;;;4342502;33;20723;-52
2022/09/26 01:05:14;;;;;;;9.77;7.07;;;;;;;;;;4341901;33;20218;-53
2022/09/26 01:07:42;;;;;;;12.52;7.57;;;;;;;;;;4327992;33;20314;-52
2022/09/26 01:10:10;;;;;;;11.23;7.07;;;;;;;;;;4327916;33;20269;-51
2022/09/26 01:12:38;;;;;;;17.08;7.53;;;;;;;;;;4328249;33;20325;-52
2022/09/26 01:15:07;;;;;;;8.90;7.22;;;;;;;;;;4334756;33;20238;-51
2022/09/26 01:17:35;;;;;;;16.47;7.70;;;;;;;;;;4342639;33;20281;-52
2022/09/26 01:20:20;;;;;;;8.80;6.60;;;;;;;;;;4345205;33;20274;-52
2022/09/26 01:23:20;;;;;;;11.47;7.70;;;;;;;;;;4344945;33;20572;-52
2022/09/26 01:26:20;;;;;;;13.23;7.07;;;;;;;;;;4345456;33;20276;-52
2022/09/26 01:29:04;;;;;;;12.97;8.17;;;;;;;;;;4345014;33;20218;-52
2022/09/26 01:31:39;;;;;;;10.67;7.27;;;;;;;;;;4345292;33;20252;-53
2022/09/26 01:34:13;;;;;;;11.10;7.37;;;;;;;;;;4345594;33;20218;-52
2022/09/26 01:37:03;;;;;;;11.45;7.65;;;;;;;;;;4345040;33;20735;-52
2022/09/26 01:39:41;;;;;;;13.60;8.13;;;;;;;;;;4341596;33;20234;-53
2022/09/26 01:42:18;;;;;;;11.30;8.07;;;;;;;;;;4344767;33;20321;-52
2022/09/26 01:44:50;;;;;;;9.23;7.43;;;;;;;;;;4345526;33;20223;-52
2022/09/26 01:47:23;;;;;;;7.70;6.53;;;;;;;;;;4344861;33;20239;-52
2022/09/26 01:49:57;;;;;;;10.23;7.63;;;;;;;;;;4355258;32;20234;-53
2022/09/26 01:52:31;;;;;;;14.53;8.50;;;;;;;;;;4347206;32;20246;-52
2022/09/26 01:55:05;;;;;;;10.30;8.70;;;;;;;;;;4345073;33;20324;-53
2022/09/26 01:57:39;;;;;;;11.10;8.68;;;;;;;;;;4344944;33;20679;-52
2022/09/26 02:00:11;;;;;;;13.60;9.05;;;;;;;;;;4345180;33;20244;-52
2022/09/26 02:02:43;;;;;;;13.23;9.15;;;;;;;;;;4344574;33;20314;-52
2022/09/26 02:05:16;;;;;;;12.10;8.35;;;;;;;;;;4344418;33;20846;-53
2022/09/26 02:07:47;;;;;;;12.00;9.10;;;;;;;;;;4329650;33;20627;-53
2022/09/26 02:10:18;;;;;;;17.25;9.23;;;;;;;;;;4330276;33;20321;-52
2022/09/26 02:12:50;;;;;;;13.70;8.63;;;;;;;;;;4329848;33;20357;-52
2022/09/26 02:15:20;;;;;;;10.30;8.03;;;;;;;;;;4332679;33;20223;-53
2022/09/26 02:17:51;;;;;;;13.03;8.00;;;;;;;;;;4344483;33;20664;-54
2022/09/26 02:20:26;;;;;;;13.47;9.00;;;;;;;;;;4337156;33;20301;-53
2022/09/26 02:22:53;;;;;;;11.43;8.13;;;;;;;;;;4329269;33;20371;-52
2022/09/26 02:25:20;;;;;;;9.73;7.00;;;;;;;;;;4329586;33;20698;-52
2022/09/26 02:27:48;;;;;;;13.03;8.03;;;;;;;;;;4329578;33;20256;-52
2022/09/26 02:30:15;;;;;;;11.90;8.23;;;;;;;;;;4329207;33;20317;-53
2022/09/26 02:32:42;;;;;;;10.77;7.77;;;;;;;;;;4329271;33;20238;-51
2022/09/26 02:35:53;;;;;;;11.27;8.57;;;;;;;;;;4329443;33;20211;-53
2022/09/26 02:38:03;;;;;;;10.57;7.57;;;;;;;;;;4329071;33;20297;-51
2022/09/26 02:40:36;;;;;;;20.27;8.87;;;;;;;;;;4329422;33;20776;-52
2022/09/26 02:43:19;;;;;;;11.80;8.37;;;;;;;;;;4329163;33;20230;-52
2022/09/26 02:45:51;;;;;;;15.20;8.60;;;;;;;;;;4329639;33;20787;-53
2022/09/26 02:48:31;;;;;;;8.47;7.30;;;;;;;;;;4339673;32;20365;-52
2022/09/26 02:51:15;;;;;;;12.03;8.30;;;;;;;;;;4358913;32;20311;-53
2022/09/26 02:53:59;;;;;;;11.83;7.90;;;;;;;;;;4359431;32;20242;-53
2022/09/26 02:56:33;;;;;;;10.37;7.70;;;;;;;;;;4329424;33;20434;-53
2022/09/26 02:59:08;;;;;;;12.00;8.30;;;;;;;;;;4329569;33;20623;-52
2022/09/26 03:01:41;;;;;;;8.50;7.60;;;;;;;;;;4329304;33;20635;-53
2022/09/26 03:04:14;;;;;;;9.37;7.73;;;;;;;;;;4329662;33;20310;-53
2022/09/26 03:06:46;;;;;;;9.30;7.17;;;;;;;;;;4328645;33;20262;-53
2022/09/26 03:09:15;;;;;;;10.97;8.07;;;;;;;;;;4329669;33;20243;-53
2022/09/26 03:11:44;;;;;;;9.67;7.30;;;;;;;;;;4329172;33;20726;-53
2022/09/26 03:14:13;;;;;;;8.87;6.60;;;;;;;;;;4329722;33;20211;-52
2022/09/26 03:16:44;;;;;;;13.20;9.37;;;;;;;;;;4337849;33;20341;-52
2022/09/26 03:19:16;;;;;;;12.50;8.53;;;;;;;;;;4343871;33;20465;-53
2022/09/26 03:21:45;;;;;;;12.07;9.73;;;;;;;;;;4329739;33;20318;-51
2022/09/26 03:24:12;;;;;;;14.63;9.23;;;;;;;;;;4329227;33;20257;-53
2022/09/26 03:26:40;;;;;;;16.00;9.43;;;;;;;;;;4328927;33;20251;-52
2022/09/26 03:29:08;;;;;;;21.93;9.13;;;;;;;;;;4329215;33;20318;-53
2022/09/26 03:31:35;;;;;;;13.20;9.80;;;;;;;;;;4328577;33;20249;-51
2022/09/26 03:34:02;;;;;;;12.27;9.00;;;;;;;;;;4328808;33;20231;-52
2022/09/26 03:36:29;;;;;;;11.10;8.03;;;;;;;;;;4328650;33;20350;-51
2022/09/26 03:38:57;;;;;;;11.70;8.63;;;;;;;;;;4328524;33;20782;-52
2022/09/26 03:41:24;;;;;;;11.70;8.23;;;;;;;;;;4328187;33;20721;-52
2022/09/26 03:43:51;;;;;;;14.07;11.20;;;;;;;;;;4334479;33;20583;-52
2022/09/26 03:46:18;;;;;;;14.53;11.60;;;;;;;;;;4343217;33;20631;-53
2022/09/26 03:48:45;;;;;;;21.17;12.73;;;;;;;;;;4346462;32;20227;-52
2022/09/26 03:51:13;;;;;;;16.47;10.90;;;;;;;;;;4351502;32;20226;-52
2022/09/26 03:53:42;;;;;;;15.47;11.07;;;;;;;;;;4342963;33;20301;-52
2022/09/26 03:56:12;;;;;;;18.53;11.13;;;;;;;;;;4343256;33;20276;-52
2022/09/26 03:58:39;;;;;;;12.53;9.07;;;;;;;;;;4343444;33;20615;-52
2022/09/26 04:01:07;;;;;;;17.13;9.20;;;;;;;;;;4342975;33;20234;-51
2022/09/26 04:03:35;;;;;;;13.00;8.57;;;;;;;;;;4343433;33;20317;-52
2022/09/26 04:06:03;;;;;;;13.53;9.07;;;;;;;;;;4342498;33;20690;-51
2022/09/26 04:08:30;;;;;;;17.20;8.53;;;;;;;;;;4343051;33;20281;-53
2022/09/26 04:11:02;;;;;;;11.50;8.30;;;;;;;;;;4343051;33;20247;-52
2022/09/26 04:13:31;;;;;;;16.83;9.73;;;;;;;;;;4342813;33;20705;-51
2022/09/26 04:15:59;;;;;;;16.90;8.13;;;;;;;;;;4342836;33;20584;-53
2022/09/26 04:18:27;;;;;;;14.07;8.63;;;;;;;;;;4342403;33;20661;-53
2022/09/26 04:20:58;;;;;;;13.53;8.17;;;;;;;;;;4342418;33;20268;-52
2022/09/26 04:23:26;;;;;;;16.30;9.80;;;;;;;;;;4342867;33;20242;-52
2022/09/26 04:25:53;;;;;;;16.70;8.33;;;;;;;;;;4342678;33;20569;-51
2022/09/26 04:28:20;;;;;;;20.53;8.83;;;;;;;;;;4343071;33;20243;-52
2022/09/26 04:30:49;;;;;;;13.60;8.07;;;;;;;;;;4342892;33;20219;-52
2022/09/26 04:33:16;;;;;;;13.00;8.87;;;;;;;;;;4342197;33;20585;-53
2022/09/26 04:35:43;;;;;;;14.47;9.03;;;;;;;;;;4342366;33;20236;-53
2022/09/26 04:38:09;;;;;;;13.83;9.33;;;;;;;;;;4342145;33;20215;-52
2022/09/26 04:40:37;;;;;;;18.53;10.10;;;;;;;;;;4342424;33;20236;-52
2022/09/26 04:43:04;;;;;;;26.50;10.03;;;;;;;;;;4341874;33;20256;-52
2022/09/26 04:45:31;;;;;;;22.57;10.77;;;;;;;;;;4341967;33;20269;-52
2022/09/26 04:47:59;;;;;;;19.27;9.90;;;;;;;;;;4341812;33;20256;-51
2022/09/26 04:50:27;;;;;;;20.97;11.50;;;;;;;;;;4355896;33;20338;-52
2022/09/26 04:52:53;;;;;;;24.67;10.73;;;;;;;;;;4358374;32;20574;-52
2022/09/26 04:55:20;;;;;;;18.70;10.63;;;;;;;;;;4360248;32;20249;-52
2022/09/26 04:57:49;;;;;;;17.60;11.17;;;;;;;;;;4359635;32;20235;-53
2022/09/26 05:00:17;;;;;;;19.27;11.37;;;;;;;;;;4360215;32;20404;-53
2022/09/26 05:02:46;;;;;;;20.10;12.47;;;;;;;;;;4359614;32;20248;-52
2022/09/26 05:05:14;;;;;;;28.57;12.30;;;;;;;;;;4357950;32;20234;-53
2022/09/26 05:07:41;;;;;;;24.47;11.70;;;;;;;;;;4330117;33;20284;-52
2022/09/26 05:10:10;;;;;;;25.37;12.60;;;;;;;;;;4330502;33;20219;-52
2022/09/26 05:12:38;;;;;;;25.57;11.47;;;;;;;;;;4329349;33;20258;-52
2022/09/26 05:15:07;;;;;;;20.10;11.80;;;;;;;;;;4329596;33;20442;-52
2022/09/26 05:17:35;;;;;;;29.17;15.30;;;;;;;;;;4336786;33;20316;-52
2022/09/26 05:20:07;;;;;;;29.57;17.93;;;;;;;;;;4344730;33;20626;-53
2022/09/26 05:22:35;;;;;;;30.17;17.93;;;;;;;;;;4345165;33;20351;-53
2022/09/26 05:27:47;;;;;;;21.10;11.47;;;;;;;;;;4344824;33;20289;-52
2022/09/26 05:30:14;;;;;;;19.97;13.43;;;;;;;;;;4344276;33;20240;-51
2022/09/26 05:32:47;;;;;;;34.03;13.60;;;;;;;;;;4344334;33;20235;-52
2022/09/26 05:35:14;;;;;;;34.60;14.43;;;;;;;;;;4344669;33;20231;-52
2022/09/26 05:37:42;;;;;;;26.40;15.13;;;;;;;;;;4344468;33;20278;-53
2022/09/26 05:43:00;;;;;;;20.97;13.17;;;;;;;;;;4342644;33;20260;-52
2022/09/26 05:45:30;;;;;;;39.38;13.80;;;;;;;;;;4342608;33;20267;-52
2022/09/26 05:47:57;;;;;;;21.00;12.87;;;;;;;;;;4343570;33;20250;-51
2022/09/26 05:50:24;;;;;;;23.57;12.67;;;;;;;;;;4347504;32;20230;-53
2022/09/26 05:52:56;;;;;;;38.08;14.52;;;;;;;;;;4343264;33;20239;-51
2022/09/26 05:55:23;;;;;;;30.50;13.52;;;;;;;;;;4344133;33;20317;-52
2022/09/26 05:57:53;;;;;;;24.13;15.30;;;;;;;;;;4343750;33;20349;-53
2022/09/26 06:00:20;;;;;;;22.30;14.52;;;;;;;;;;4344105;33;20249;-53
2022/09/26 06:02:55;;;;;;;40.77;18.30;;;;;;;;;;4344743;33;20324;-52
2022/09/26 06:05:22;;;;;;;29.50;15.97;;;;;;;;;;4343456;33;20723;-53
2022/09/26 06:07:49;;;;;;;34.60;15.23;;;;;;;;;;4344013;33;20373;-52
2022/09/26 06:10:17;;;;;;;28.87;14.30;;;;;;;;;;4343984;33;20782;-53
2022/09/26 06:12:44;;;;;;;22.60;14.03;;;;;;;;;;4343851;33;20238;-53
2022/09/26 06:15:11;;;;;;;29.17;13.10;;;;;;;;;;4344422;33;20230;-53
2022/09/26 06:17:38;;;;;;;36.10;13.80;;;;;;;;;;4343968;33;20258;-52
2022/09/26 06:20:06;;;;;;;20.97;12.67;;;;;;;;;;4343920;33;20211;-52
2022/09/26 06:22:39;;;;;;;20.17;12.87;;;;;;;;;;4343966;33;20285;-52
2022/09/26 06:25:07;;;;;;;23.85;14.45;;;;;;;;;;4344558;33;20207;-52
2022/09/26 06:27:37;;;;;;;21.67;14.23;;;;;;;;;;4344039;33;20721;-52
2022/09/26 06:30:05;;;;;;;23.60;13.73;;;;;;;;;;4343654;33;20265;-53
2022/09/26 06:32:32;;;;;;;27.77;14.10;;;;;;;;;;4343390;33;20690;-53
2022/09/26 06:34:59;;;;;;;29.27;14.63;;;;;;;;;;4343802;33;20234;-53
2022/09/26 06:37:26;;;;;;;21.13;14.30;;;;;;;;;;4343719;33;20873;-53
2022/09/26 06:39:53;;;;;;;23.13;13.43;;;;;;;;;;4343852;33;20219;-53
2022/09/26 06:42:20;;;;;;;17.52;14.45;;;;;;;;;;4343210;33;20323;-51
2022/09/26 06:44:48;;;;;;;19.87;14.23;;;;;;;;;;4343885;33;20215;-51
2022/09/26 06:47:15;;;;;;;35.17;14.80;;;;;;;;;;4343298;33;20381;-53
2022/09/26 06:49:44;;;;;;;22.60;12.20;;;;;;;;;;4345419;32;20293;-52
2022/09/26 06:52:11;;;;;;;22.63;11.37;;;;;;;;;;4337339;33;20584;-51
2022/09/26 06:54:38;;;;;;;12.83;10.10;;;;;;;;;;4343486;33;20714;-52
2022/09/26 06:57:05;;;;;;;14.18;9.82;;;;;;;;;;4343461;33;20321;-52
2022/09/26 06:59:32;;;;;;;27.13;15.93;;;;;;;;;;4343762;33;20288;-52
2022/09/26 07:02:00;;;;;;;19.80;11.00;;;;;;;;;;4339588;32;20718;-53
2022/09/26 07:04:28;;;;;;;17.40;10.27;;;;;;;;;;4347209;32;20302;-52
2022/09/26 07:06:55;;;;;;;13.83;9.77;;;;;;;;;;4342382;33;20262;-52
2022/09/26 07:09:22;;;;;;;14.20;9.02;;;;;;;;;;4344017;33;20228;-52
2022/09/26 07:11:49;;;;;;;12.20;7.97;;;;;;;;;;4343255;33;20255;-52
2022/09/26 07:50:12;;;;;;;9.75;6.50;;;;;;;;;;4328910;33;20739;-86
2022/09/26 07:56:09;;;;;;;14.30;7.35;;;;;;;;;;4332462;33;20321;-81
2022/09/26 07:58:42;;;;;;;18.37;6.15;;;;;;;;;;4324782;33;20629;-84
2022/09/26 08:04:31;;;;;;;7.37;5.65;;;;;;;;;;4316862;33;20223;-82
2022/09/26 08:07:00;;;;;;;6.90;4.82;;;;;;;;;;4317076;33;20625;-83
2022/09/26 08:09:27;;;;;;;8.98;4.78;;;;;;;;;;4316997;33;20307;-83
2022/09/26 08:11:55;;;;;;;15.27;6.37;;;;;;;;;;4317133;33;20479;-80
2022/09/26 08:14:22;;;;;;;8.18;5.15;;;;;;;;;;4316845;33;20568;-84
2022/09/26 08:16:54;;;;;;;9.52;5.43;;;;;;;;;;4316636;33;20711;-84
2022/09/26 08:19:23;;;;;;;7.00;5.30;;;;;;;;;;4316931;33;20648;-84
2022/09/26 08:21:50;;;;;;;11.02;5.50;;;;;;;;;;4317499;33;20199;-83
2022/09/26 08:24:19;;;;;;;14.10;6.47;;;;;;;;;;4316686;33;20577;-83
2022/09/26 08:26:47;;;;;;;11.93;5.72;;;;;;;;;;4316486;33;20659;-82
2022/09/26 08:29:15;;;;;;;9.82;5.62;;;;;;;;;;4316685;33;20534;-81
2022/09/26 08:31:44;;;;;;;7.22;6.07;;;;;;;;;;4317047;33;20635;-82
2022/09/26 08:34:12;;;;;;;9.30;5.22;;;;;;;;;;4316975;33;20558;-83
2022/09/26 08:36:39;;;;;;;8.68;5.40;;;;;;;;;;4316913;33;20616;-84
2022/09/26 08:39:06;;;;;;;9.27;5.62;;;;;;;;;;4316635;33;20657;-82
2022/09/26 08:42:02;;;;;;;12.15;5.22;;;;;;;;;;4316450;33;20499;-81
2022/09/26 08:44:46;;;;;;;15.55;5.97;;;;;;;;;;4315439;33;20807;-82
2022/09/26 08:47:30;;;;;;;10.93;5.43;;;;;;;;;;4316358;33;20561;-82
2022/09/26 08:50:08;;;;;;;12.35;5.53;;;;;;;;;;4316477;33;20249;-83
2022/09/26 08:52:40;;;;;;;7.35;4.62;;;;;;;;;;4316286;33;20594;-80
2022/09/26 08:55:14;;;;;;;5.97;4.30;;;;;;;;;;4316370;33;20576;-79
2022/09/26 08:57:48;;;;;;;5.37;4.25;;;;;;;;;;4316547;33;20526;-82
2022/09/26 09:00:19;;;;;;;10.68;4.62;;;;;;;;;;4316650;33;20551;-81
2022/09/26 09:02:58;;;;;;;5.93;3.92;;;;;;;;;;4316133;33;20597;-81
2022/09/26 09:05:28;;;;;;;11.50;3.92;;;;;;;;;;4316328;33;20365;-80
2022/09/26 09:07:58;;;;;;;7.62;5.05;;;;;;;;;;4316573;33;20628;-81
2022/09/26 09:10:41;;;;;;;10.98;4.40;;;;;;;;;;4316779;33;20585;-81
2022/09/26 09:13:25;;;;;;;6.75;3.78;;;;;;;;;;4316366;33;20557;-82
2022/09/26 09:16:17;;;;;;;7.80;5.07;;;;;;;;;;4317103;33;20522;-80
2022/09/26 09:18:54;;;;;;;5.85;4.30;;;;;;;;;;4316398;33;20607;-80
2022/09/26 09:21:32;;;;;;;9.38;4.32;;;;;;;;;;4316865;33;20651;-81
2022/09/26 09:24:16;;;;;;;9.77;4.18;;;;;;;;;;4316576;33;20612;-81
2022/09/26 09:26:55;;;;;;;4.62;3.25;;;;;;;;;;4316384;33;20523;-81
2022/09/26 09:30:02;;;;;;;3.62;3.08;;;;;;;;;;4315967;33;20234;-82
2022/09/26 09:32:44;;;;;;;8.05;3.33;;;;;;;;;;4316362;33;20309;-81
2022/09/26 09:35:14;;;;;;;9.57;4.22;;;;;;;;;;4315750;33;20708;-81
2022/09/26 09:37:46;;;;;;;6.60;3.87;;;;;;;;;;4316310;33;20604;-82
2022/09/26 09:40:24;;;;;;;8.07;4.28;;;;;;;;;;4317802;33;20612;-79
2022/09/26 09:42:55;;;;;;;8.05;4.40;;;;;;;;;;4318447;33;20379;-80
2022/09/26 09:45:29;;;;;;;9.68;3.50;;;;;;;;;;4319094;33;20643;-82
2022/09/26 09:47:57;;;;;;;18.67;3.92;;;;;;;;;;4319275;33;20266;-83
2022/09/26 09:50:35;;;;;;;5.85;3.47;;;;;;;;;;4319141;33;20560;-81
2022/09/26 09:53:18;;;;;;;4.65;3.42;;;;;;;;;;4318328;33;20522;-80
2022/09/26 09:55:53;;;;;;;9.65;4.03;;;;;;;;;;4318701;33;20626;-83
2022/09/26 09:58:50;;;;;;;7.12;2.92;;;;;;;;;;4318601;33;20657;-81
2022/09/26 10:01:25;;;;;;;8.70;3.37;;;;;;;;;;4306789;33;20595;-79
2022/09/26 10:04:02;;;;;;;4.37;3.97;;;;;;;;;;4318504;33;20575;-79
2022/09/26 10:06:32;;;;;;;8.07;3.30;;;;;;;;;;4317980;33;20544;-82
2022/09/26 10:09:06;;;;;;;6.93;4.07;;;;;;;;;;4318470;33;20273;-81
2022/09/26 10:11:40;;;;;;;8.15;3.50;;;;;;;;;;4305070;33;20685;-79
2022/09/26 10:14:13;;;;;;;6.05;3.45;;;;;;;;;;4318090;33;20595;-82
2022/09/26 10:17:17;;;;;;;4.47;3.62;;;;;;;;;;4318405;33;20692;-82
2022/09/26 10:19:47;;;;;;;6.87;4.12;;;;;;;;;;4318986;33;20589;-82
2022/09/26 10:22:24;;;;;;;9.48;4.55;;;;;;;;;;4318428;33;20564;-83
2022/09/26 10:24:59;;;;;;;6.57;4.50;;;;;;;;;;4318462;33;20325;-81
2022/09/26 10:27:37;;;;;;;7.18;3.90;;;;;;;;;;4318456;33;20250;-86
2022/09/26 10:30:20;;;;;;;8.40;3.75;;;;;;;;;;4318640;33;20581;-84
2022/09/26 10:32:50;;;;;;;6.85;4.18;;;;;;;;;;4318894;33;20207;-85
2022/09/26 10:35:23;;;;;;;9.32;4.15;;;;;;;;;;4320868;33;20216;-85
2022/09/26 10:38:00;;;;;;;11.32;3.70;;;;;;;;;;4318735;33;20597;-82
2022/09/26 10:40:47;;;;;;;6.93;3.78;;;;;;;;;;4318425;33;20314;-81
2022/09/26 10:43:27;;;;;;;9.00;3.87;;;;;;;;;;4318056;33;20306;-75
2022/09/26 10:46:02;;;;;;;5.15;3.45;;;;;;;;;;4317948;33;20609;-78
2022/09/26 10:48:42;;;;;;;6.55;3.92;;;;;;;;;;4317705;33;20558;-82
2022/09/26 10:51:14;;;;;;;9.43;3.67;;;;;;;;;;4317731;33;20222;-80
2022/09/26 10:53:42;;;;;;;4.82;3.35;;;;;;;;;;4317837;33;20309;-81
2022/09/26 10:56:15;;;;;;;9.68;4.80;;;;;;;;;;4317651;33;20569;-78
2022/09/26 10:58:46;;;;;;;7.37;3.42;;;;;;;;;;4317711;33;20565;-80
2022/09/26 11:01:21;;;;;;;10.95;3.33;;;;;;;;;;4317825;33;20237;-82
2022/09/26 11:03:50;;;;;;;6.68;3.85;;;;;;;;;;4317572;33;20258;-74
2022/09/26 11:06:33;;;;;;;4.60;2.97;;;;;;;;;;4317604;33;20574;-83
2022/09/26 11:09:03;;;;;;;8.32;3.15;;;;;;;;;;4318327;33;20561;-83
2022/09/26 11:11:37;;;;;;;4.35;2.92;;;;;;;;;;4317785;33;20693;-84
2022/09/26 11:14:07;;;;;;;5.43;2.95;;;;;;;;;;4317707;33;20657;-83
2022/09/26 11:16:52;;;;;;;11.27;3.12;;;;;;;;;;4317933;33;20549;-83
2022/09/26 11:19:39;;;;;;;12.18;2.87;;;;;;;;;;4317731;33;20649;-83
2022/09/26 11:22:19;;;;;;;7.30;3.35;;;;;;;;;;4318400;33;20552;-84
2022/09/26 11:24:58;;;;;;;5.30;2.65;;;;;;;;;;4317711;33;20669;-83
2022/09/26 11:27:31;;;;;;;11.50;2.45;;;;;;;;;;4318028;33;20548;-83
2022/09/26 11:30:07;;;;;;;4.85;1.98;;;;;;;;;;4318035;33;20633;-83
2022/09/26 11:32:39;;;;;;;3.80;2.03;;;;;;;;;;4318535;33;20562;-82
2022/09/26 11:35:13;;;;;;;21.42;3.37;;;;;;;;;;4318800;33;20231;-83
2022/09/26 11:38:02;;;;;;;3.10;2.22;;;;;;;;;;4319070;33;20208;-83
2022/09/26 11:40:52;;;;;;;4.12;2.40;;;;;;;;;;4319352;33;20625;-80
2022/09/26 11:43:31;;;;;;;4.07;2.50;;;;;;;;;;4321016;33;20659;-82
2022/09/26 11:46:20;;;;;;;2.10;1.80;;;;;;;;;;4325704;33;20643;-81
2022/09/26 11:49:13;;;;;;;11.25;2.87;;;;;;;;;;4328396;33;20246;-80
2022/09/26 11:51:57;;;;;;;8.77;2.35;;;;;;;;;;4325086;33;20637;-80
2022/09/26 11:54:50;;;;;;;4.85;2.00;;;;;;;;;;4329538;33;20223;-82
2022/09/26 11:57:34;;;;;;;4.57;2.25;;;;;;;;;;4329834;33;20252;-80
2022/09/26 12:00:14;;;;;;;4.68;2.33;;;;;;;;;;4329792;33;20215;-81
2022/09/26 12:03:00;;;;;;;2.35;1.70;;;;;;;;;;4328383;33;20250;-81
2022/09/26 12:05:40;;;;;;;6.75;2.20;;;;;;;;;;4327356;33;20580;-81
2022/09/26 12:08:21;;;;;;;4.53;1.85;;;;;;;;;;4329297;33;20215;-81
2022/09/26 12:11:00;;;;;;;7.65;2.28;;;;;;;;;;4328090;33;20585;-82
2022/09/26 12:13:40;;;;;;;3.70;2.30;;;;;;;;;;4328345;33;20692;-81
2022/09/26 12:16:15;;;;;;;4.72;2.40;;;;;;;;;;4327647;33;20234;-79
2022/09/26 12:18:52;;;;;;;3.37;1.52;;;;;;;;;;4325015;33;20313;-80
2022/09/26 12:21:31;;;;;;;7.68;2.03;;;;;;;;;;4322017;33;20585;-81
2022/09/26 12:24:06;;;;;;;4.50;2.08;;;;;;;;;;4318137;33;20541;-80
2022/09/26 12:26:43;;;;;;;5.00;1.80;;;;;;;;;;4316871;33;20705;-80
2022/09/26 12:29:32;;;;;;;3.60;2.15;;;;;;;;;;4317183;33;20522;-79
2022/09/26 12:32:13;;;;;;;3.12;1.73;;;;;;;;;;4317405;33;20618;-78
2022/09/26 12:35:03;;;;;;;5.53;2.22;;;;;;;;;;4317268;33;20553;-79
2022/09/26 12:38:02;;;;;;;8.25;2.45;;;;;;;;;;4317767;33;20654;-78
2022/09/26 12:40:38;;;;;;;3.70;2.20;;;;;;;;;;4317372;33;20620;-79
2022/09/26 12:43:33;;;;;;;9.20;2.62;;;;;;;;;;4317766;33;20636;-79
2022/09/26 12:46:35;;;;;;;6.68;1.87;;;;;;;;;;4317989;33;20533;-79
2022/09/26 12:49:22;;;;;;;6.75;2.90;;;;;;;;;;4315358;33;20616;-79
2022/09/26 12:51:53;;;;;;;5.72;2.28;;;;;;;;;;4318720;33;20610;-87
2022/09/26 12:54:42;;;;;;;3.30;2.08;;;;;;;;;;4318797;33;20522;-89
2022/09/26 12:57:21;;;;;;;6.90;2.42;;;;;;;;;;4318208;33;20227;-87
2022/09/26 13:00:19;;;;;;;8.75;2.30;;;;;;;;;;4317712;33;20621;-81
2022/09/26 13:03:13;;;;;;;10.02;2.47;;;;;;;;;;4314562;33;20649;-79
2022/09/26 13:06:03;;;;;;;7.87;2.75;;;;;;;;;;4317102;33;20548;-82
2022/09/26 13:08:38;;;;;;;15.65;3.62;;;;;;;;;;4317160;33;20228;-81
2022/09/26 13:11:15;;;;;;;8.88;2.28;;;;;;;;;;4317291;33;20203;-85
2022/09/26 13:14:13;;;;;;;5.18;2.40;;;;;;;;;;4317744;33;20597;-82
2022/09/26 13:16:54;;;;;;;11.75;2.15;;;;;;;;;;4320252;33;20548;-85
2022/09/26 13:19:29;;;;;;;5.72;1.98;;;;;;;;;;4320485;33;20635;-83
2022/09/26 13:22:02;;;;;;;10.30;2.37;;;;;;;;;;4319690;33;20585;-83
2022/09/26 13:24:40;;;;;;;11.65;2.12;;;;;;;;;;4320448;33;20640;-83
2022/09/26 13:27:14;;;;;;;4.03;2.12;;;;;;;;;;4320292;33;20576;-85
2022/09/26 13:29:46;;;;;;;5.30;2.25;;;;;;;;;;4319732;33;20608;-83
2022/09/26 13:32:21;;;;;;;5.37;2.60;;;;;;;;;;4319545;33;20638;-83
2022/09/26 13:34:53;;;;;;;7.03;2.72;;;;;;;;;;4319564;33;20548;-83
2022/09/26 13:37:41;;;;;;;6.25;2.20;;;;;;;;;;4320181;33;20684;-84
2022/09/26 13:40:24;;;;;;;3.62;2.58;;;;;;;;;;4319988;33;20552;-83
2022/09/26 13:43:06;;;;;;;4.30;2.62;;;;;;;;;;4319729;33;20668;-84
2022/09/26 13:45:49;;;;;;;3.95;2.28;;;;;;;;;;4319813;33;20668;-84
2022/09/26 13:48:26;;;;;;;5.75;2.80;;;;;;;;;;4319671;33;20635;-84
2022/09/26 13:51:01;;;;;;;12.75;6.95;;;;;;;;;;4320138;33;20725;-83
2022/09/26 13:53:36;;;;;;;7.90;2.35;;;;;;;;;;4319456;33;20583;-84
2022/09/26 13:56:44;;;;;;;5.53;2.25;;;;;;;;;;4319447;33;20617;-84
2022/09/26 13:59:33;;;;;;;5.00;3.25;;;;;;;;;;4315061;33;20604;-84
2022/09/26 14:02:31;;;;;;;8.20;3.65;;;;;;;;;;4319359;33;20609;-84
2022/09/26 14:05:45;;;;;;;4.10;2.20;;;;;;;;;;4273788;33;20559;-80
2022/09/26 14:11:26;;;;;;;2.35;1.70;;;;;;;;;;4318917;33;20321;-81
2022/09/26 14:14:38;;;;;;;9.43;2.50;;;;;;;;;;4319188;33;20663;-81
2022/09/26 14:18:01;;;;;;;5.00;2.87;;;;;;;;;;4259532;33;20312;-80
2022/09/26 14:20:33;;;;;;;4.35;2.37;;;;;;;;;;4318989;33;20557;-82
2022/09/26 14:23:03;;;;;;;3.22;2.30;;;;;;;;;;4318808;33;20381;-83
2022/09/26 14:25:56;;;;;;;11.12;2.60;;;;;;;;;;4318200;33;20600;-80
2022/09/26 14:28:32;;;;;;;13.77;2.22;;;;;;;;;;4318849;33;20646;-82
2022/09/26 14:31:20;;;;;;;6.18;2.30;;;;;;;;;;4318685;33;20215;-85
2022/09/26 14:33:49;;;;;;;6.40;2.28;;;;;;;;;;4318801;33;20575;-82
2022/09/26 14:36:29;;;;;;;6.18;2.00;;;;;;;;;;4318717;33;20338;-81
2022/09/26 14:38:56;;;;;;;4.32;2.30;;;;;;;;;;4318556;33;20632;-81
2022/09/26 14:41:29;;;;;;;8.98;2.33;;;;;;;;;;4318624;33;20283;-80
2022/09/26 14:44:02;;;;;;;4.12;2.08;;;;;;;;;;4318472;33;20538;-82
2022/09/26 14:46:32;;;;;;;4.25;1.98;;;;;;;;;;4318846;33;20612;-84
2022/09/26 14:49:03;;;;;;;4.53;1.70;;;;;;;;;;4318360;33;20640;-80
2022/09/26 14:51:33;;;;;;;12.75;2.47;;;;;;;;;;4318877;33;20558;-81
2022/09/26 14:54:03;;;;;;;3.50;1.90;;;;;;;;;;4318361;33;20668;-84
2022/09/26 14:56:42;;;;;;;9.05;2.30;;;;;;;;;;4318789;33;20581;-80
2022/09/26 14:59:42;;;;;;;8.05;1.85;;;;;;;;;;4318523;33;20562;-81
2022/09/26 15:02:27;;;;;;;9.40;2.05;;;;;;;;;;4318628;33;20574;-85
2022/09/26 15:05:12;;;;;;;3.47;1.90;;;;;;;;;;4318406;33;20659;-83
2022/09/26 15:07:46;;;;;;;8.35;2.47;;;;;;;;;;4318637;33;20621;-83
2022/09/26 15:10:26;;;;;;;3.40;2.20;;;;;;;;;;4318644;33;20652;-82
2022/09/26 15:13:09;;;;;;;5.72;2.58;;;;;;;;;;4318819;33;20792;-80
2022/09/26 15:15:49;;;;;;;5.47;2.10;;;;;;;;;;4318309;33;20549;-80
2022/09/26 15:18:29;;;;;;;3.20;2.80;;;;;;;;;;4318782;33;20650;-79
2022/09/26 15:21:02;;;;;;;4.35;2.37;;;;;;;;;;4318200;33;20558;-79
2022/09/26 15:23:33;;;;;;;3.60;1.83;;;;;;;;;;4318744;33;20621;-80
2022/09/26 15:26:03;;;;;;;5.25;2.42;;;;;;;;;;4318240;33;20599;-81
2022/09/26 15:28:37;;;;;;;9.02;2.05;;;;;;;;;;4317924;33;20613;-80
2022/09/26 15:31:23;;;;;;;3.12;1.70;;;;;;;;;;4318166;33;20720;-79
2022/09/26 15:33:54;;;;;;;4.35;2.20;;;;;;;;;;4318563;33;20641;-78
2022/09/26 15:36:22;;;;;;;7.60;2.15;;;;;;;;;;4317402;33;20609;-78
2022/09/26 15:38:50;;;;;;;8.05;2.58;;;;;;;;;;4317434;33;20600;-80
2022/09/26 15:42:57;;;;;;;3.00;2.05;;;;;;;;;;4317488;33;20235;-81
2022/09/26 15:44:08;;;;;;;6.20;2.80;;;;;;;;;;4317518;33;20348;-83
2022/09/26 15:46:35;;;;;;;5.60;3.40;;;;;;;;;;4317606;33;20778;-83
2022/09/26 15:49:14;;;;;;;8.30;2.87;;;;;;;;;;4317726;33;20595;-85
2022/09/26 15:51:44;;;;;;;7.90;4.03;;;;;;;;;;4317695;33;20306;-84
2022/09/26 15:54:15;;;;;;;6.43;3.40;;;;;;;;;;4317716;33;20565;-81
2022/09/26 15:56:46;;;;;;;7.30;3.83;;;;;;;;;;4317646;33;20565;-79
2022/09/26 15:59:21;;;;;;;11.48;6.50;;;;;;;;;;4317575;33;20622;-78
2022/09/26 16:01:52;;;;;;;4.90;3.03;;;;;;;;;;4317538;33;20617;-79
2022/09/26 16:04:22;;;;;;;6.28;3.53;;;;;;;;;;4317467;33;20556;-78
2022/09/26 16:06:55;;;;;;;6.55;2.58;;;;;;;;;;4317548;33;20593;-79